sensor_id;sensor_type;location;lat;lon;timestamp;temperature;humidity
54158;DHT22;40065;49.894;10.358;2023-08-21T00:04:44;23.80;99.90
54158;DHT22;40065;49.894;10.358;2023-08-21T00:09:46;23.80;99.90
54158;DHT22;40065;49.894;10.358;2023-08-21T00:14:48;23.60;99.90
54158;DHT22;40065;49.894;10.358;2023-08-21T00:19:49;23.60;99.90
54158;DHT22;40065;49.894;10.358;2023-08-21T00:24:51;23.50;99.90
54158;DHT22;40065;49.894;10.358;2023-08-21T00:29:53;23.50;99.90
54158;DHT22;40065;49.894;10.358;2023-08-21T00:34:55;23.50;99.90
54158;DHT22;40065;49.894;10.358;2023-08-21T00:39:57;23.40;99.90
54158;DHT22;40065;49.894;10.358;2023-08-21T00:44:59;23.40;99.90
54158;DHT22;40065;49.894;10.358;2023-08-21T00:50:01;23.10;99.90
54158;DHT22;40065;49.894;10.358;2023-08-21T00:55:03;23.10;99.90
54158;DHT22;40065;49.894;10.358;2023-08-21T01:00:07;23.10;99.90
54158;DHT22;40065;49.894;10.358;2023-08-21T01:05:11;23.10;99.90
54158;DHT22;40065;49.894;10.358;2023-08-21T01:15:43;23.00;99.90
54158;DHT22;40065;49.894;10.358;2023-08-21T01:20:47;22.90;99.90
54158;DHT22;40065;49.894;10.358;2023-08-21T01:25:49;22.90;99.90
54158;DHT22;40065;49.894;10.358;2023-08-21T01:30:55;22.70;99.90
54158;DHT22;40065;49.894;10.358;2023-08-21T01:36:02;22.50;99.90
54158;DHT22;40065;49.894;10.358;2023-08-21T01:41:05;22.30;99.90
54158;DHT22;40065;49.894;10.358;2023-08-21T01:46:07;22.10;99.90
54158;DHT22;40065;49.894;10.358;2023-08-21T01:51:09;22.00;99.90
54158;DHT22;40065;49.894;10.358;2023-08-21T01:56:12;22.00;99.90
54158;DHT22;40065;49.894;10.358;2023-08-21T02:01:14;22.00;99.90
54158;DHT22;40065;49.894;10.358;2023-08-21T02:06:16;22.00;99.90
54158;DHT22;40065;49.894;10.358;2023-08-21T02:11:19;22.20;99.90
54158;DHT22;40065;49.894;10.358;2023-08-21T02:16:20;22.20;99.90
54158;DHT22;40065;49.894;10.358;2023-08-21T02:21:23;22.10;99.90
54158;DHT22;40065;49.894;10.358;2023-08-21T02:26:25;22.20;99.90
54158;DHT22;40065;49.894;10.358;2023-08-21T02:31:27;22.20;99.90
54158;DHT22;40065;49.894;10.358;2023-08-21T02:36:29;22.20;99.90
54158;DHT22;40065;49.894;10.358;2023-08-21T02:41:33;22.00;99.90
54158;DHT22;40065;49.894;10.358;2023-08-21T02:46:35;22.10;99.90
54158;DHT22;40065;49.894;10.358;2023-08-21T02:51:38;22.10;99.90
54158;DHT22;40065;49.894;10.358;2023-08-21T02:56:40;22.10;99.90
54158;DHT22;40065;49.894;10.358;2023-08-21T03:01:42;22.00;99.90
54158;DHT22;40065;49.894;10.358;2023-08-21T03:06:44;21.90;99.90
54158;DHT22;40065;49.894;10.358;2023-08-21T03:11:45;21.80;99.90
54158;DHT22;40065;49.894;10.358;2023-08-21T03:16:47;21.70;99.90
54158;DHT22;40065;49.894;10.358;2023-08-21T03:21:49;21.80;99.90
54158;DHT22;40065;49.894;10.358;2023-08-21T03:26:51;21.80;99.90
54158;DHT22;40065;49.894;10.358;2023-08-21T03:31:53;21.70;99.90
54158;DHT22;40065;49.894;10.358;2023-08-21T03:37:00;21.60;99.90
54158;DHT22;40065;49.894;10.358;2023-08-21T03:42:05;21.40;99.90
54158;DHT22;40065;49.894;10.358;2023-08-21T03:47:07;21.50;99.90
54158;DHT22;40065;49.894;10.358;2023-08-21T03:52:18;21.50;99.90
54158;DHT22;40065;49.894;10.358;2023-08-21T03:57:20;21.40;99.90
54158;DHT22;40065;49.894;10.358;2023-08-21T04:02:22;21.50;99.90
54158;DHT22;40065;49.894;10.358;2023-08-21T04:07:27;21.50;99.90
54158;DHT22;40065;49.894;10.358;2023-08-21T04:12:29;21.20;99.90
54158;DHT22;40065;49.894;10.358;2023-08-21T04:17:31;21.20;99.90
54158;DHT22;40065;49.894;10.358;2023-08-21T04:22:33;21.20;99.90
54158;DHT22;40065;49.894;10.358;2023-08-21T04:27:35;21.30;99.90
54158;DHT22;40065;49.894;10.358;2023-08-21T04:32:37;21.20;99.90
54158;DHT22;40065;49.894;10.358;2023-08-21T04:37:46;21.40;99.90
54158;DHT22;40065;49.894;10.358;2023-08-21T04:42:50;21.60;99.90
54158;DHT22;40065;49.894;10.358;2023-08-21T04:47:54;21.80;99.90
54158;DHT22;40065;49.894;10.358;2023-08-21T04:52:59;22.10;99.90
54158;DHT22;40065;49.894;10.358;2023-08-21T04:58:01;22.40;99.90
54158;DHT22;40065;49.894;10.358;2023-08-21T05:03:06;22.70;99.90
54158;DHT22;40065;49.894;10.358;2023-08-21T05:08:08;23.00;99.90
54158;DHT22;40065;49.894;10.358;2023-08-21T05:13:10;23.20;99.90
54158;DHT22;40065;49.894;10.358;2023-08-21T05:18:12;23.10;99.90
54158;DHT22;40065;49.894;10.358;2023-08-21T05:23:14;24.00;99.90
54158;DHT22;40065;49.894;10.358;2023-08-21T05:28:18;28.20;99.90
54158;DHT22;40065;49.894;10.358;2023-08-21T05:33:20;30.30;98.60
54158;DHT22;40065;49.894;10.358;2023-08-21T05:38:24;31.50;96.70
54158;DHT22;40065;49.894;10.358;2023-08-21T05:43:26;30.80;97.40
54158;DHT22;40065;49.894;10.358;2023-08-21T05:48:28;30.70;97.60
54158;DHT22;40065;49.894;10.358;2023-08-21T05:53:30;32.30;95.90
54158;DHT22;40065;49.894;10.358;2023-08-21T05:58:33;34.70;92.80
54158;DHT22;40065;49.894;10.358;2023-08-21T06:03:35;35.60;89.30
54158;DHT22;40065;49.894;10.358;2023-08-21T06:08:43;35.50;90.00
54158;DHT22;40065;49.894;10.358;2023-08-21T06:13:45;36.60;87.10
54158;DHT22;40065;49.894;10.358;2023-08-21T06:18:47;36.70;83.10
54158;DHT22;40065;49.894;10.358;2023-08-21T06:23:49;36.80;83.10
54158;DHT22;40065;49.894;10.358;2023-08-21T06:28:51;35.00;84.90
54158;DHT22;40065;49.894;10.358;2023-08-21T06:33:54;34.00;88.20
54158;DHT22;40065;49.894;10.358;2023-08-21T06:38:56;36.80;84.00
54158;DHT22;40065;49.894;10.358;2023-08-21T06:43:58;35.20;84.20
54158;DHT22;40065;49.894;10.358;2023-08-21T06:49:02;32.00;90.80
54158;DHT22;40065;49.894;10.358;2023-08-21T06:54:05;30.40;94.30
54158;DHT22;40065;49.894;10.358;2023-08-21T06:59:07;31.60;93.50
54158;DHT22;40065;49.894;10.358;2023-08-21T07:04:09;33.40;91.30
54158;DHT22;40065;49.894;10.358;2023-08-21T07:09:11;35.30;89.10
54158;DHT22;40065;49.894;10.358;2023-08-21T07:14:13;38.00;82.80
54158;DHT22;40065;49.894;10.358;2023-08-21T07:19:16;38.20;81.10
54158;DHT22;40065;49.894;10.358;2023-08-21T07:24:18;39.00;75.90
54158;DHT22;40065;49.894;10.358;2023-08-21T07:29:20;39.30;75.10
54158;DHT22;40065;49.894;10.358;2023-08-21T07:34:22;39.40;76.50
54158;DHT22;40065;49.894;10.358;2023-08-21T07:39:24;40.20;75.70
54158;DHT22;40065;49.894;10.358;2023-08-21T07:44:27;38.90;75.10
54158;DHT22;40065;49.894;10.358;2023-08-21T07:49:28;39.50;75.80
54158;DHT22;40065;49.894;10.358;2023-08-21T07:54:30;39.90;75.10
54158;DHT22;40065;49.894;10.358;2023-08-21T07:59:32;40.30;72.30
54158;DHT22;40065;49.894;10.358;2023-08-21T08:04:34;36.50;78.50
54158;DHT22;40065;49.894;10.358;2023-08-21T08:09:36;36.00;79.20
54158;DHT22;40065;49.894;10.358;2023-08-21T08:14:38;38.30;78.60
54158;DHT22;40065;49.894;10.358;2023-08-21T08:19:40;37.80;76.60
54158;DHT22;40065;49.894;10.358;2023-08-21T08:24:41;37.00;77.00
54158;DHT22;40065;49.894;10.358;2023-08-21T08:29:43;36.60;77.80
54158;DHT22;40065;49.894;10.358;2023-08-21T08:34:45;38.20;74.90
54158;DHT22;40065;49.894;10.358;2023-08-21T08:39:48;36.70;78.30
54158;DHT22;40065;49.894;10.358;2023-08-21T08:44:53;36.70;78.30
54158;DHT22;40065;49.894;10.358;2023-08-21T08:49:56;35.90;80.50
54158;DHT22;40065;49.894;10.358;2023-08-21T08:54:58;35.90;80.30
54158;DHT22;40065;49.894;10.358;2023-08-21T09:00:01;36.10;82.30
54158;DHT22;40065;49.894;10.358;2023-08-21T09:05:03;35.20;80.00
54158;DHT22;40065;49.894;10.358;2023-08-21T09:10:13;35.50;78.60
54158;DHT22;40065;49.894;10.358;2023-08-21T09:15:16;34.10;82.00
54158;DHT22;40065;49.894;10.358;2023-08-21T09:20:18;34.70;84.10
54158;DHT22;40065;49.894;10.358;2023-08-21T09:25:20;35.60;80.60
54158;DHT22;40065;49.894;10.358;2023-08-21T09:30:21;36.90;74.40
54158;DHT22;40065;49.894;10.358;2023-08-21T09:35:24;36.10;77.00
54158;DHT22;40065;49.894;10.358;2023-08-21T09:40:26;35.10;77.00
54158;DHT22;40065;49.894;10.358;2023-08-21T09:45:28;35.70;74.90
54158;DHT22;40065;49.894;10.358;2023-08-21T09:50:33;37.20;76.00
54158;DHT22;40065;49.894;10.358;2023-08-21T09:55:37;35.90;72.20
54158;DHT22;40065;49.894;10.358;2023-08-21T10:00:40;35.10;74.90
54158;DHT22;40065;49.894;10.358;2023-08-21T10:05:43;34.30;76.90
54158;DHT22;40065;49.894;10.358;2023-08-21T10:10:44;34.90;76.70
54158;DHT22;40065;49.894;10.358;2023-08-21T10:15:46;36.30;75.00
54158;DHT22;40065;49.894;10.358;2023-08-21T10:20:50;36.80;71.90
54158;DHT22;40065;49.894;10.358;2023-08-21T10:26:03;35.60;74.90
54158;DHT22;40065;49.894;10.358;2023-08-21T10:31:26;34.10;75.20
54158;DHT22;40065;49.894;10.358;2023-08-21T10:41:54;34.80;76.10
54158;DHT22;40065;49.894;10.358;2023-08-21T10:47:14;35.60;74.40
54158;DHT22;40065;49.894;10.358;2023-08-21T10:52:37;35.60;73.00
54158;DHT22;40065;49.894;10.358;2023-08-21T10:57:40;34.90;73.00
54158;DHT22;40065;49.894;10.358;2023-08-21T11:02:47;34.40;76.10
54158;DHT22;40065;49.894;10.358;2023-08-21T11:07:49;36.40;71.50
54158;DHT22;40065;49.894;10.358;2023-08-21T11:12:54;36.70;71.30
54158;DHT22;40065;49.894;10.358;2023-08-21T11:17:59;36.50;68.60
54158;DHT22;40065;49.894;10.358;2023-08-21T11:23:04;36.80;71.40
54158;DHT22;40065;49.894;10.358;2023-08-21T11:28:09;36.40;66.90
54158;DHT22;40065;49.894;10.358;2023-08-21T11:33:12;36.00;65.90
54158;DHT22;40065;49.894;10.358;2023-08-21T11:38:17;36.10;68.30
54158;DHT22;40065;49.894;10.358;2023-08-21T11:43:19;36.90;70.20
54158;DHT22;40065;49.894;10.358;2023-08-21T11:48:21;37.40;70.10
54158;DHT22;40065;49.894;10.358;2023-08-21T11:58:40;37.00;67.40
54158;DHT22;40065;49.894;10.358;2023-08-21T12:03:43;36.00;66.50
54158;DHT22;40065;49.894;10.358;2023-08-21T12:08:45;35.60;68.70
54158;DHT22;40065;49.894;10.358;2023-08-21T12:13:47;36.90;71.30
54158;DHT22;40065;49.894;10.358;2023-08-21T12:18:49;37.70;66.50
54158;DHT22;40065;49.894;10.358;2023-08-21T12:23:52;38.20;65.50
54158;DHT22;40065;49.894;10.358;2023-08-21T12:28:54;38.30;66.70
54158;DHT22;40065;49.894;10.358;2023-08-21T12:33:56;37.40;66.00
54158;DHT22;40065;49.894;10.358;2023-08-21T12:38:58;37.80;66.60
54158;DHT22;40065;49.894;10.358;2023-08-21T12:44:00;37.70;66.70
54158;DHT22;40065;49.894;10.358;2023-08-21T12:49:02;37.50;62.00
54158;DHT22;40065;49.894;10.358;2023-08-21T12:54:04;36.90;66.90
54158;DHT22;40065;49.894;10.358;2023-08-21T12:59:06;36.60;64.20
54158;DHT22;40065;49.894;10.358;2023-08-21T13:04:09;35.90;65.40
54158;DHT22;40065;49.894;10.358;2023-08-21T13:09:11;35.40;67.70
54158;DHT22;40065;49.894;10.358;2023-08-21T13:14:13;35.30;68.20
54158;DHT22;40065;49.894;10.358;2023-08-21T13:19:15;36.50;66.50
54158;DHT22;40065;49.894;10.358;2023-08-21T13:24:17;36.10;67.50
54158;DHT22;40065;49.894;10.358;2023-08-21T13:29:19;36.00;65.70
54158;DHT22;40065;49.894;10.358;2023-08-21T13:34:21;35.40;65.20
54158;DHT22;40065;49.894;10.358;2023-08-21T13:39:23;36.40;64.20
54158;DHT22;40065;49.894;10.358;2023-08-21T13:44:24;35.80;66.50
54158;DHT22;40065;49.894;10.358;2023-08-21T13:49:26;36.10;64.90
54158;DHT22;40065;49.894;10.358;2023-08-21T13:54:28;36.00;64.50
54158;DHT22;40065;49.894;10.358;2023-08-21T13:59:31;35.20;64.60
54158;DHT22;40065;49.894;10.358;2023-08-21T14:04:32;35.60;67.20
54158;DHT22;40065;49.894;10.358;2023-08-21T14:09:34;36.60;63.40
54158;DHT22;40065;49.894;10.358;2023-08-21T14:14:37;37.10;61.50
54158;DHT22;40065;49.894;10.358;2023-08-21T14:19:39;37.20;61.90
54158;DHT22;40065;49.894;10.358;2023-08-21T14:24:41;36.80;64.60
54158;DHT22;40065;49.894;10.358;2023-08-21T14:29:43;37.30;64.50
54158;DHT22;40065;49.894;10.358;2023-08-21T14:34:45;36.10;63.60
54158;DHT22;40065;49.894;10.358;2023-08-21T14:39:48;36.20;62.50
54158;DHT22;40065;49.894;10.358;2023-08-21T14:44:50;36.90;64.50
54158;DHT22;40065;49.894;10.358;2023-08-21T14:49:52;35.70;65.20
54158;DHT22;40065;49.894;10.358;2023-08-21T14:54:54;36.00;65.80
54158;DHT22;40065;49.894;10.358;2023-08-21T14:59:56;36.80;65.20
54158;DHT22;40065;49.894;10.358;2023-08-21T15:04:58;36.90;64.60
54158;DHT22;40065;49.894;10.358;2023-08-21T15:09:59;35.80;64.90
54158;DHT22;40065;49.894;10.358;2023-08-21T15:15:01;35.40;66.40
54158;DHT22;40065;49.894;10.358;2023-08-21T15:20:06;35.20;65.80
54158;DHT22;40065;49.894;10.358;2023-08-21T15:25:09;35.50;66.20
54158;DHT22;40065;49.894;10.358;2023-08-21T15:30:11;34.90;66.30
54158;DHT22;40065;49.894;10.358;2023-08-21T15:35:13;35.20;65.40
54158;DHT22;40065;49.894;10.358;2023-08-21T15:40:16;35.20;67.20
54158;DHT22;40065;49.894;10.358;2023-08-21T15:45:17;35.40;66.30
54158;DHT22;40065;49.894;10.358;2023-08-21T15:50:19;34.70;67.60
54158;DHT22;40065;49.894;10.358;2023-08-21T15:55:22;33.80;69.00
54158;DHT22;40065;49.894;10.358;2023-08-21T16:00:24;33.10;69.30
54158;DHT22;40065;49.894;10.358;2023-08-21T16:05:25;32.80;70.80
54158;DHT22;40065;49.894;10.358;2023-08-21T16:10:27;32.50;72.50
54158;DHT22;40065;49.894;10.358;2023-08-21T16:15:29;32.20;73.10
54158;DHT22;40065;49.894;10.358;2023-08-21T16:20:31;31.90;73.80
54158;DHT22;40065;49.894;10.358;2023-08-21T16:25:33;31.90;72.40
54158;DHT22;40065;49.894;10.358;2023-08-21T16:30:35;31.80;73.70
54158;DHT22;40065;49.894;10.358;2023-08-21T16:35:37;31.80;73.40
54158;DHT22;40065;49.894;10.358;2023-08-21T16:40:39;31.60;73.90
54158;DHT22;40065;49.894;10.358;2023-08-21T16:45:40;31.40;73.60
54158;DHT22;40065;49.894;10.358;2023-08-21T16:50:43;31.50;74.70
54158;DHT22;40065;49.894;10.358;2023-08-21T16:55:45;31.50;75.30
54158;DHT22;40065;49.894;10.358;2023-08-21T17:00:48;31.30;75.70
54158;DHT22;40065;49.894;10.358;2023-08-21T17:05:50;31.00;76.30
54158;DHT22;40065;49.894;10.358;2023-08-21T17:10:51;30.80;78.40
54158;DHT22;40065;49.894;10.358;2023-08-21T17:15:53;30.60;77.20
54158;DHT22;40065;49.894;10.358;2023-08-21T17:20:57;30.60;77.00
54158;DHT22;40065;49.894;10.358;2023-08-21T17:25:59;30.60;77.60
54158;DHT22;40065;49.894;10.358;2023-08-21T17:31:00;30.60;77.90
54158;DHT22;40065;49.894;10.358;2023-08-21T17:36:03;30.40;78.30
54158;DHT22;40065;49.894;10.358;2023-08-21T17:41:05;30.30;78.70
54158;DHT22;40065;49.894;10.358;2023-08-21T17:46:09;30.20;79.20
54158;DHT22;40065;49.894;10.358;2023-08-21T17:51:12;29.90;79.00
54158;DHT22;40065;49.894;10.358;2023-08-21T17:56:15;29.80;82.00
54158;DHT22;40065;49.894;10.358;2023-08-21T18:01:17;29.60;81.30
54158;DHT22;40065;49.894;10.358;2023-08-21T18:06:19;29.40;81.60
54158;DHT22;40065;49.894;10.358;2023-08-21T18:11:23;29.30;81.90
54158;DHT22;40065;49.894;10.358;2023-08-21T18:16:25;29.10;85.30
54158;DHT22;40065;49.894;10.358;2023-08-21T18:21:27;28.90;86.80
54158;DHT22;40065;49.894;10.358;2023-08-21T18:26:29;28.80;87.40
54158;DHT22;40065;49.894;10.358;2023-08-21T18:31:30;28.50;89.30
54158;DHT22;40065;49.894;10.358;2023-08-21T18:36:32;28.30;90.40
54158;DHT22;40065;49.894;10.358;2023-08-21T18:41:35;27.80;90.90
54158;DHT22;40065;49.894;10.358;2023-08-21T18:46:37;27.70;91.00
54158;DHT22;40065;49.894;10.358;2023-08-21T18:51:39;27.70;91.40
54158;DHT22;40065;49.894;10.358;2023-08-21T18:56:41;27.50;91.90
54158;DHT22;40065;49.894;10.358;2023-08-21T19:01:42;27.40;91.90
54158;DHT22;40065;49.894;10.358;2023-08-21T19:06:44;27.10;93.50
54158;DHT22;40065;49.894;10.358;2023-08-21T19:12:05;27.00;93.90
54158;DHT22;40065;49.894;10.358;2023-08-21T19:17:07;26.90;94.90
54158;DHT22;40065;49.894;10.358;2023-08-21T19:22:08;26.60;95.60
54158;DHT22;40065;49.894;10.358;2023-08-21T19:27:10;26.40;96.20
54158;DHT22;40065;49.894;10.358;2023-08-21T19:32:12;26.30;96.40
54158;DHT22;40065;49.894;10.358;2023-08-21T19:37:14;26.10;97.10
54158;DHT22;40065;49.894;10.358;2023-08-21T19:42:16;25.80;97.60
54158;DHT22;40065;49.894;10.358;2023-08-21T19:47:18;25.70;98.30
54158;DHT22;40065;49.894;10.358;2023-08-21T19:52:20;25.50;99.40
54158;DHT22;40065;49.894;10.358;2023-08-21T19:57:22;25.40;99.60
54158;DHT22;40065;49.894;10.358;2023-08-21T20:02:23;25.10;99.90
54158;DHT22;40065;49.894;10.358;2023-08-21T20:07:25;25.10;99.90
54158;DHT22;40065;49.894;10.358;2023-08-21T20:12:27;24.80;99.90
54158;DHT22;40065;49.894;10.358;2023-08-21T20:17:29;24.90;99.90
54158;DHT22;40065;49.894;10.358;2023-08-21T20:22:31;24.70;99.90
54158;DHT22;40065;49.894;10.358;2023-08-21T20:27:35;24.90;99.90
54158;DHT22;40065;49.894;10.358;2023-08-21T20:32:38;24.90;99.90
54158;DHT22;40065;49.894;10.358;2023-08-21T20:37:40;24.90;99.90
54158;DHT22;40065;49.894;10.358;2023-08-21T20:42:43;24.90;99.90
54158;DHT22;40065;49.894;10.358;2023-08-21T20:47:46;24.60;99.90
54158;DHT22;40065;49.894;10.358;2023-08-21T20:52:48;24.40;99.90
54158;DHT22;40065;49.894;10.358;2023-08-21T20:57:51;24.40;99.90
54158;DHT22;40065;49.894;10.358;2023-08-21T21:02:53;24.40;99.90
54158;DHT22;40065;49.894;10.358;2023-08-21T21:07:54;24.00;99.90
54158;DHT22;40065;49.894;10.358;2023-08-21T21:12:56;24.00;99.90
54158;DHT22;40065;49.894;10.358;2023-08-21T21:17:58;23.90;99.90
54158;DHT22;40065;49.894;10.358;2023-08-21T21:23:00;23.80;99.90
54158;DHT22;40065;49.894;10.358;2023-08-21T21:28:02;23.90;99.90
54158;DHT22;40065;49.894;10.358;2023-08-21T21:33:04;23.90;99.90
54158;DHT22;40065;49.894;10.358;2023-08-21T21:38:06;23.80;99.90
54158;DHT22;40065;49.894;10.358;2023-08-21T21:43:08;23.50;99.90
54158;DHT22;40065;49.894;10.358;2023-08-21T21:48:10;23.60;99.90
54158;DHT22;40065;49.894;10.358;2023-08-21T21:53:12;23.60;99.90
54158;DHT22;40065;49.894;10.358;2023-08-21T21:58:14;23.50;99.90
54158;DHT22;40065;49.894;10.358;2023-08-21T22:03:16;23.50;99.90
54158;DHT22;40065;49.894;10.358;2023-08-21T22:08:18;23.40;99.90
54158;DHT22;40065;49.894;10.358;2023-08-21T22:13:20;23.40;99.90
54158;DHT22;40065;49.894;10.358;2023-08-21T22:18:22;23.50;99.90
54158;DHT22;40065;49.894;10.358;2023-08-21T22:23:23;23.50;99.90
54158;DHT22;40065;49.894;10.358;2023-08-21T22:28:25;23.50;99.90
54158;DHT22;40065;49.894;10.358;2023-08-21T22:33:27;23.40;99.90
54158;DHT22;40065;49.894;10.358;2023-08-21T22:38:29;23.40;99.90
54158;DHT22;40065;49.894;10.358;2023-08-21T22:43:31;23.30;99.90
54158;DHT22;40065;49.894;10.358;2023-08-21T22:48:33;23.40;99.90
54158;DHT22;40065;49.894;10.358;2023-08-21T22:53:36;23.10;99.90
54158;DHT22;40065;49.894;10.358;2023-08-21T22:58:37;22.80;99.90
54158;DHT22;40065;49.894;10.358;2023-08-21T23:03:39;23.00;99.90
54158;DHT22;40065;49.894;10.358;2023-08-21T23:08:41;23.00;99.90
54158;DHT22;40065;49.894;10.358;2023-08-21T23:13:43;22.90;99.90
54158;DHT22;40065;49.894;10.358;2023-08-21T23:18:45;22.80;99.90
54158;DHT22;40065;49.894;10.358;2023-08-21T23:23:46;22.70;99.90
54158;DHT22;40065;49.894;10.358;2023-08-21T23:28:48;22.60;99.90
54158;DHT22;40065;49.894;10.358;2023-08-21T23:33:50;22.50;99.90
54158;DHT22;40065;49.894;10.358;2023-08-21T23:38:52;22.60;99.90
54158;DHT22;40065;49.894;10.358;2023-08-21T23:43:54;22.60;99.90
54158;DHT22;40065;49.894;10.358;2023-08-21T23:48:56;22.60;99.90
54158;DHT22;40065;49.894;10.358;2023-08-21T23:53:58;22.40;99.90
54158;DHT22;40065;49.894;10.358;2023-08-21T23:59:00;22.40;99.90
